sensor_id;sensor_type;location;lat;lon;timestamp;pressure;altitude;pressure_sealevel;temperature;humidity
17607;BME280;69222;52.242;20.980;2024-01-30T00:01:25;102112.06;;;2.36;77.13
17607;BME280;69222;52.242;20.980;2024-01-30T00:03:55;102110.22;;;2.34;76.79
17607;BME280;69222;52.242;20.980;2024-01-30T00:06:23;102111.28;;;2.37;76.81
17607;BME280;69222;52.242;20.980;2024-01-30T00:08:51;102104.44;;;2.36;76.52
17607;BME280;69222;52.242;20.980;2024-01-30T00:11:20;102098.47;;;2.36;77.09
17607;BME280;69222;52.242;20.980;2024-01-30T00:13:48;102104.34;;;2.35;76.95
17607;BME280;69222;52.242;20.980;2024-01-30T00:16:25;102102.53;;;2.32;77.17
17607;BME280;69222;52.242;20.980;2024-01-30T00:18:54;102093.91;;;2.30;77.17
17607;BME280;69222;52.242;20.980;2024-01-30T00:21:23;102102.41;;;2.31;77.48
17607;BME280;69222;52.242;20.980;2024-01-30T00:23:51;102097.44;;;2.32;76.43
17607;BME280;69222;52.242;20.980;2024-01-30T00:26:19;102087.25;;;2.32;77.30
17607;BME280;69222;52.242;20.980;2024-01-30T00:28:47;102092.19;;;2.29;77.36
17607;BME280;69222;52.242;20.980;2024-01-30T00:31:15;102091.38;;;2.30;76.64
17607;BME280;69222;52.242;20.980;2024-01-30T00:33:43;102089.69;;;2.31;76.06
17607;BME280;69222;52.242;20.980;2024-01-30T00:36:12;102083.75;;;2.30;76.96
17607;BME280;69222;52.242;20.980;2024-01-30T00:38:40;102093.13;;;2.31;76.00
17607;BME280;69222;52.242;20.980;2024-01-30T00:41:08;102085.47;;;2.31;76.30
17607;BME280;69222;52.242;20.980;2024-01-30T00:43:37;102082.94;;;2.31;76.46
17607;BME280;69222;52.242;20.980;2024-01-30T00:46:04;102095.66;;;2.31;76.35
17607;BME280;69222;52.242;20.980;2024-01-30T00:48:32;102096.38;;;2.29;76.10
17607;BME280;69222;52.242;20.980;2024-01-30T00:51:00;102089.38;;;2.25;76.30
17607;BME280;69222;52.242;20.980;2024-01-30T00:53:30;102085.88;;;2.23;76.14
17607;BME280;69222;52.242;20.980;2024-01-30T00:55:58;102097.59;;;2.21;76.68
17607;BME280;69222;52.242;20.980;2024-01-30T00:58:25;102089.84;;;2.17;76.40
17607;BME280;69222;52.242;20.980;2024-01-30T01:00:54;102093.06;;;2.15;77.27
17607;BME280;69222;52.242;20.980;2024-01-30T01:03:22;102089.56;;;2.13;76.27
17607;BME280;69222;52.242;20.980;2024-01-30T01:05:50;102088.63;;;2.11;76.64
17607;BME280;69222;52.242;20.980;2024-01-30T01:08:17;102092.72;;;2.09;76.71
17607;BME280;69222;52.242;20.980;2024-01-30T01:10:48;102101.84;;;2.05;77.50
17607;BME280;69222;52.242;20.980;2024-01-30T01:13:16;102100.97;;;2.05;76.73
17607;BME280;69222;52.242;20.980;2024-01-30T01:15:44;102101.59;;;2.01;77.56
17607;BME280;69222;52.242;20.980;2024-01-30T01:18:12;102102.41;;;2.00;77.72
17607;BME280;69222;52.242;20.980;2024-01-30T01:20:40;102096.34;;;1.98;76.93
17607;BME280;69222;52.242;20.980;2024-01-30T01:23:08;102098.81;;;1.96;77.03
17607;BME280;69222;52.242;20.980;2024-01-30T01:25:36;102102.91;;;1.94;77.93
17607;BME280;69222;52.242;20.980;2024-01-30T01:28:05;102101.97;;;1.92;78.13
17607;BME280;69222;52.242;20.980;2024-01-30T01:30:33;102098.38;;;1.88;78.25
17607;BME280;69222;52.242;20.980;2024-01-30T01:33:02;102096.53;;;1.86;78.37
17607;BME280;69222;52.242;20.980;2024-01-30T01:35:30;102094.78;;;1.85;77.41
17607;BME280;69222;52.242;20.980;2024-01-30T01:37:58;102087.84;;;1.82;78.59
17607;BME280;69222;52.242;20.980;2024-01-30T01:40:27;102089.59;;;1.83;78.27
17607;BME280;69222;52.242;20.980;2024-01-30T01:42:55;102077.69;;;1.82;78.75
17607;BME280;69222;52.242;20.980;2024-01-30T01:45:25;102085.38;;;1.84;77.88
17607;BME280;69222;52.242;20.980;2024-01-30T01:47:53;102082.84;;;1.84;78.16
17607;BME280;69222;52.242;20.980;2024-01-30T01:50:22;102068.31;;;1.81;78.59
17607;BME280;69222;52.242;20.980;2024-01-30T01:52:51;102073.47;;;1.83;78.07
17607;BME280;69222;52.242;20.980;2024-01-30T01:55:21;102071.72;;;1.82;78.50
17607;BME280;69222;52.242;20.980;2024-01-30T01:57:52;102068.50;;;1.84;77.85
17607;BME280;69222;52.242;20.980;2024-01-30T02:00:21;102058.41;;;1.86;78.46
17607;BME280;69222;52.242;20.980;2024-01-30T02:02:50;102056.72;;;1.86;78.39
17607;BME280;69222;52.242;20.980;2024-01-30T02:05:21;102058.66;;;1.90;78.41
17607;BME280;69222;52.242;20.980;2024-01-30T02:07:50;102062.97;;;1.91;77.40
17607;BME280;69222;52.242;20.980;2024-01-30T02:10:18;102047.72;;;1.91;77.33
17607;BME280;69222;52.242;20.980;2024-01-30T02:12:46;102056.28;;;1.93;78.23
17607;BME280;69222;52.242;20.980;2024-01-30T02:17:51;102048.72;;;1.95;77.89
17607;BME280;69222;52.242;20.980;2024-01-30T02:20:19;102052.19;;;1.96;77.75
17607;BME280;69222;52.242;20.980;2024-01-30T02:22:49;102043.66;;;1.95;77.57
17607;BME280;69222;52.242;20.980;2024-01-30T02:25:17;102038.50;;;1.93;77.13
17607;BME280;69222;52.242;20.980;2024-01-30T02:27:45;102046.13;;;1.93;76.95
17607;BME280;69222;52.242;20.980;2024-01-30T02:30:13;102053.81;;;1.95;77.03
17607;BME280;69222;52.242;20.980;2024-01-30T02:32:41;102044.56;;;1.96;77.64
17607;BME280;69222;52.242;20.980;2024-01-30T02:35:09;102049.72;;;1.97;77.23
17607;BME280;69222;52.242;20.980;2024-01-30T02:37:37;102049.63;;;1.96;76.74
17607;BME280;69222;52.242;20.980;2024-01-30T02:40:07;102046.19;;;1.95;77.35
17607;BME280;69222;52.242;20.980;2024-01-30T02:42:35;102056.34;;;1.95;77.51
17607;BME280;69222;52.242;20.980;2024-01-30T02:45:03;102052.94;;;1.94;77.48
17607;BME280;69222;52.242;20.980;2024-01-30T02:47:31;102050.31;;;1.93;76.92
17607;BME280;69222;52.242;20.980;2024-01-30T02:49:59;102057.88;;;1.91;76.94
17607;BME280;69222;52.242;20.980;2024-01-30T02:52:27;102052.88;;;1.93;76.93
17607;BME280;69222;52.242;20.980;2024-01-30T02:54:55;102053.66;;;1.92;77.22
17607;BME280;69222;52.242;20.980;2024-01-30T02:57:25;102058.75;;;1.92;76.98
17607;BME280;69222;52.242;20.980;2024-01-30T02:59:53;102050.16;;;1.90;76.99
17607;BME280;69222;52.242;20.980;2024-01-30T03:02:20;102055.94;;;1.87;76.88
17607;BME280;69222;52.242;20.980;2024-01-30T03:04:48;102048.94;;;1.83;76.29
17607;BME280;69222;52.242;20.980;2024-01-30T03:07:16;102049.81;;;1.84;77.30
17607;BME280;69222;52.242;20.980;2024-01-30T03:09:44;102044.72;;;1.84;77.20
17607;BME280;69222;52.242;20.980;2024-01-30T03:12:12;102054.81;;;1.82;76.44
17607;BME280;69222;52.242;20.980;2024-01-30T03:14:41;102050.59;;;1.83;76.30
17607;BME280;69222;52.242;20.980;2024-01-30T03:17:09;102053.13;;;1.83;76.98
17607;BME280;69222;52.242;20.980;2024-01-30T03:19:37;102049.56;;;1.79;76.65
17607;BME280;69222;52.242;20.980;2024-01-30T03:22:05;102047.13;;;1.81;76.67
17607;BME280;69222;52.242;20.980;2024-01-30T03:24:33;102050.34;;;1.78;76.65
17607;BME280;69222;52.242;20.980;2024-01-30T03:27:01;102057.19;;;1.79;76.72
17607;BME280;69222;52.242;20.980;2024-01-30T03:29:29;102045.09;;;1.75;76.96
17607;BME280;69222;52.242;20.980;2024-01-30T03:31:58;102051.78;;;1.73;76.65
17607;BME280;69222;52.242;20.980;2024-01-30T03:34:26;102050.78;;;1.71;76.36
17607;BME280;69222;52.242;20.980;2024-01-30T03:36:54;102049.81;;;1.69;76.61
17607;BME280;69222;52.242;20.980;2024-01-30T03:39:24;102041.25;;;1.67;76.15
17607;BME280;69222;52.242;20.980;2024-01-30T03:41:52;102041.13;;;1.65;76.21
17607;BME280;69222;52.242;20.980;2024-01-30T03:44:19;102041.94;;;1.64;77.11
17607;BME280;69222;52.242;20.980;2024-01-30T03:46:47;102047.03;;;1.64;76.72
17607;BME280;69222;52.242;20.980;2024-01-30T03:49:17;102050.44;;;1.65;76.52
17607;BME280;69222;52.242;20.980;2024-01-30T03:51:45;102049.50;;;1.63;76.71
17607;BME280;69222;52.242;20.980;2024-01-30T03:54:14;102037.66;;;1.63;76.05
17607;BME280;69222;52.242;20.980;2024-01-30T03:56:42;102034.25;;;1.63;76.22
17607;BME280;69222;52.242;20.980;2024-01-30T03:59:10;102037.56;;;1.62;77.09
17607;BME280;69222;52.242;20.980;2024-01-30T04:01:38;102035.81;;;1.61;76.65
17607;BME280;69222;52.242;20.980;2024-01-30T04:04:06;102035.63;;;1.58;76.64
17607;BME280;69222;52.242;20.980;2024-01-30T04:06:35;102037.28;;;1.57;77.03
17607;BME280;69222;52.242;20.980;2024-01-30T04:09:04;102035.63;;;1.58;76.66
17607;BME280;69222;52.242;20.980;2024-01-30T04:11:32;102031.34;;;1.57;76.98
17607;BME280;69222;52.242;20.980;2024-01-30T04:14:00;102038.97;;;1.57;76.98
17607;BME280;69222;52.242;20.980;2024-01-30T04:16:28;102033.69;;;1.54;76.40
17607;BME280;69222;52.242;20.980;2024-01-30T04:18:56;102038.78;;;1.54;76.70
17607;BME280;69222;52.242;20.980;2024-01-30T04:21:24;102032.84;;;1.53;76.11
17607;BME280;69222;52.242;20.980;2024-01-30T04:23:53;102038.78;;;1.54;76.66
17607;BME280;69222;52.242;20.980;2024-01-30T04:26:21;102035.38;;;1.53;76.98
17607;BME280;69222;52.242;20.980;2024-01-30T04:28:49;102055.81;;;1.55;75.95
17607;BME280;69222;52.242;20.980;2024-01-30T04:31:16;102047.22;;;1.53;75.71
17607;BME280;69222;52.242;20.980;2024-01-30T04:33:45;102047.03;;;1.50;76.88
17607;BME280;69222;52.242;20.980;2024-01-30T04:36:13;102040.09;;;1.47;77.09
17607;BME280;69222;52.242;20.980;2024-01-30T04:38:41;102038.34;;;1.46;76.02
17607;BME280;69222;52.242;20.980;2024-01-30T04:41:10;102033.97;;;1.43;75.95
17607;BME280;69222;52.242;20.980;2024-01-30T04:43:38;102034.69;;;1.41;76.35
17607;BME280;69222;52.242;20.980;2024-01-30T04:46:06;102030.38;;;1.40;77.05
17607;BME280;69222;52.242;20.980;2024-01-30T04:48:34;102033.81;;;1.40;76.88
17607;BME280;69222;52.242;20.980;2024-01-30T04:51:02;102034.56;;;1.39;76.10
17607;BME280;69222;52.242;20.980;2024-01-30T04:53:31;102026.97;;;1.39;76.55
17607;BME280;69222;52.242;20.980;2024-01-30T04:55:59;102031.34;;;1.42;76.10
17607;BME280;69222;52.242;20.980;2024-01-30T04:58:28;102032.16;;;1.41;76.30
17607;BME280;69222;52.242;20.980;2024-01-30T05:00:56;102028.00;;;1.43;76.82
17607;BME280;69222;52.242;20.980;2024-01-30T05:03:24;102023.72;;;1.42;76.02
17607;BME280;69222;52.242;20.980;2024-01-30T05:05:52;102027.13;;;1.42;76.70
17607;BME280;69222;52.242;20.980;2024-01-30T05:08:20;102024.59;;;1.42;75.68
17607;BME280;69222;52.242;20.980;2024-01-30T05:10:48;102033.09;;;1.43;76.09
17607;BME280;69222;52.242;20.980;2024-01-30T05:13:16;102029.69;;;1.42;75.89
17607;BME280;69222;52.242;20.980;2024-01-30T05:15:45;102025.41;;;1.41;76.13
17607;BME280;69222;52.242;20.980;2024-01-30T05:18:13;102027.13;;;1.42;76.02
17607;BME280;69222;52.242;20.980;2024-01-30T05:20:41;102021.13;;;1.40;76.39
17607;BME280;69222;52.242;20.980;2024-01-30T05:23:09;102025.47;;;1.43;75.91
17607;BME280;69222;52.242;20.980;2024-01-30T05:25:37;102018.66;;;1.42;75.34
17607;BME280;69222;52.242;20.980;2024-01-30T05:28:05;102026.25;;;1.42;75.36
17607;BME280;69222;52.242;20.980;2024-01-30T05:30:33;102024.59;;;1.42;76.05
17607;BME280;69222;52.242;20.980;2024-01-30T05:33:03;102020.38;;;1.43;75.35
17607;BME280;69222;52.242;20.980;2024-01-30T05:35:31;102030.47;;;1.41;75.86
17607;BME280;69222;52.242;20.980;2024-01-30T05:37:59;102023.53;;;1.39;75.61
17607;BME280;69222;52.242;20.980;2024-01-30T05:40:27;102028.56;;;1.37;75.62
17607;BME280;69222;52.242;20.980;2024-01-30T05:42:55;102028.56;;;1.37;75.73
17607;BME280;69222;52.242;20.980;2024-01-30T05:45:25;102041.88;;;1.33;75.25
17607;BME280;69222;52.242;20.980;2024-01-30T05:47:53;102034.25;;;1.33;75.30
17607;BME280;69222;52.242;20.980;2024-01-30T05:50:23;102035.91;;;1.33;75.54
17607;BME280;69222;52.242;20.980;2024-01-30T05:52:52;102030.72;;;1.31;75.71
17607;BME280;69222;52.242;20.980;2024-01-30T05:55:20;102026.34;;;1.29;76.37
17607;BME280;69222;52.242;20.980;2024-01-30T05:57:48;102026.19;;;1.26;76.09
17607;BME280;69222;52.242;20.980;2024-01-30T06:00:17;102028.00;;;1.28;76.36
17607;BME280;69222;52.242;20.980;2024-01-30T06:02:45;102028.97;;;1.30;76.05
17607;BME280;69222;52.242;20.980;2024-01-30T06:05:13;102030.72;;;1.31;76.02
17607;BME280;69222;52.242;20.980;2024-01-30T06:07:42;102023.22;;;1.33;75.55
17607;BME280;69222;52.242;20.980;2024-01-30T06:10:10;102025.84;;;1.34;75.65
17607;BME280;69222;52.242;20.980;2024-01-30T06:12:39;102019.78;;;1.32;75.48
17607;BME280;69222;52.242;20.980;2024-01-30T06:15:08;102019.78;;;1.32;75.24
17607;BME280;69222;52.242;20.980;2024-01-30T06:17:36;102017.34;;;1.34;75.06
17607;BME280;69222;52.242;20.980;2024-01-30T06:20:06;102021.72;;;1.36;75.84
17607;BME280;69222;52.242;20.980;2024-01-30T06:22:34;102019.34;;;1.39;74.99
17607;BME280;69222;52.242;20.980;2024-01-30T06:25:04;102024.59;;;1.42;75.03
17607;BME280;69222;52.242;20.980;2024-01-30T06:27:32;102024.72;;;1.44;75.37
17607;BME280;69222;52.242;20.980;2024-01-30T06:30:00;102021.25;;;1.43;74.91
17607;BME280;69222;52.242;20.980;2024-01-30T06:32:28;102029.84;;;1.45;74.41
17607;BME280;69222;52.242;20.980;2024-01-30T06:35:01;102025.56;;;1.44;75.12
17607;BME280;69222;52.242;20.980;2024-01-30T06:37:29;102028.13;;;1.44;74.51
17607;BME280;69222;52.242;20.980;2024-01-30T06:39:57;102028.13;;;1.44;74.33
17607;BME280;69222;52.242;20.980;2024-01-30T06:42:26;102038.34;;;1.46;75.14
17607;BME280;69222;52.242;20.980;2024-01-30T06:44:54;102034.94;;;1.45;74.38
17607;BME280;69222;52.242;20.980;2024-01-30T06:47:22;102035.72;;;1.44;75.01
17607;BME280;69222;52.242;20.980;2024-01-30T06:49:49;102023.66;;;1.40;74.54
17607;BME280;69222;52.242;20.980;2024-01-30T06:52:17;102028.72;;;1.40;74.40
17607;BME280;69222;52.242;20.980;2024-01-30T06:54:45;102030.47;;;1.41;74.98
17607;BME280;69222;52.242;20.980;2024-01-30T06:57:13;102035.56;;;1.41;74.22
17607;BME280;69222;52.242;20.980;2024-01-30T06:59:42;102025.41;;;1.41;75.01
17607;BME280;69222;52.242;20.980;2024-01-30T07:02:11;102035.56;;;1.41;74.32
17607;BME280;69222;52.242;20.980;2024-01-30T07:04:39;102046.66;;;1.43;74.66
17607;BME280;69222;52.242;20.980;2024-01-30T07:07:13;102039.94;;;1.44;74.68
17607;BME280;69222;52.242;20.980;2024-01-30T07:09:42;102034.94;;;1.45;74.82
17607;BME280;69222;52.242;20.980;2024-01-30T07:12:10;102035.72;;;1.44;74.41
17607;BME280;69222;52.242;20.980;2024-01-30T07:14:38;102040.19;;;1.49;74.11
17607;BME280;69222;52.242;20.980;2024-01-30T07:17:07;102034.31;;;1.50;74.70
17607;BME280;69222;52.242;20.980;2024-01-30T07:19:35;102036.97;;;1.51;74.42
17607;BME280;69222;52.242;20.980;2024-01-30T07:22:03;102043.09;;;1.55;73.40
17607;BME280;69222;52.242;20.980;2024-01-30T07:24:31;102047.38;;;1.56;74.34
17607;BME280;69222;52.242;20.980;2024-01-30T07:26:59;102044.22;;;1.60;74.33
17607;BME280;69222;52.242;20.980;2024-01-30T07:29:27;102047.03;;;1.64;74.07
17607;BME280;69222;52.242;20.980;2024-01-30T07:31:55;102049.81;;;1.69;73.30
17607;BME280;69222;52.242;20.980;2024-01-30T07:34:24;102050.97;;;1.74;73.63
17607;BME280;69222;52.242;20.980;2024-01-30T07:36:54;102040.00;;;1.75;73.01
17607;BME280;69222;52.242;20.980;2024-01-30T07:39:22;102040.06;;;1.77;72.95
17607;BME280;69222;52.242;20.980;2024-01-30T07:41:50;102044.56;;;1.81;72.83
17607;BME280;69222;52.242;20.980;2024-01-30T07:44:18;102054.00;;;1.83;72.55
17607;BME280;69222;52.242;20.980;2024-01-30T07:46:46;102052.44;;;1.85;73.08
17607;BME280;69222;52.242;20.980;2024-01-30T07:49:14;102039.91;;;1.88;72.63
17607;BME280;69222;52.242;20.980;2024-01-30T07:51:43;102041.03;;;1.93;72.90
17607;BME280;69222;52.242;20.980;2024-01-30T07:54:12;102040.59;;;2.01;72.22
17607;BME280;69222;52.242;20.980;2024-01-30T07:56:40;102043.38;;;2.05;71.91
17607;BME280;69222;52.242;20.980;2024-01-30T07:59:09;102036.63;;;2.06;71.74
17607;BME280;69222;52.242;20.980;2024-01-30T08:01:37;102041.81;;;2.07;72.29
17607;BME280;69222;52.242;20.980;2024-01-30T08:04:05;102041.06;;;2.10;72.55
17607;BME280;69222;52.242;20.980;2024-01-30T08:06:34;102041.34;;;2.14;71.97
17607;BME280;69222;52.242;20.980;2024-01-30T08:09:03;102045.69;;;2.17;71.55
17607;BME280;69222;52.242;20.980;2024-01-30T08:11:31;102042.56;;;2.21;70.83
17607;BME280;69222;52.242;20.980;2024-01-30T08:13:59;102041.84;;;2.24;70.55
17607;BME280;69222;52.242;20.980;2024-01-30T08:16:27;102039.38;;;2.25;71.42
17607;BME280;69222;52.242;20.980;2024-01-30T08:18:55;102030.25;;;2.29;70.51
17607;BME280;69222;52.242;20.980;2024-01-30T08:21:24;102037.97;;;2.30;70.18
17607;BME280;69222;52.242;20.980;2024-01-30T08:23:52;102031.31;;;2.32;70.74
17607;BME280;69222;52.242;20.980;2024-01-30T08:26:22;102032.00;;;2.30;70.48
17607;BME280;69222;52.242;20.980;2024-01-30T08:28:50;102020.22;;;2.32;70.89
17607;BME280;69222;52.242;20.980;2024-01-30T08:31:20;102019.53;;;2.34;70.79
17607;BME280;69222;52.242;20.980;2024-01-30T08:33:48;102022.06;;;2.34;70.85
17607;BME280;69222;52.242;20.980;2024-01-30T08:36:17;102019.63;;;2.36;71.00
17607;BME280;69222;52.242;20.980;2024-01-30T08:38:45;102018.81;;;2.37;70.02
17607;BME280;69222;52.242;20.980;2024-01-30T08:41:13;102019.84;;;2.40;70.89
17607;BME280;69222;52.242;20.980;2024-01-30T08:43:42;102029.34;;;2.43;70.82
17607;BME280;69222;52.242;20.980;2024-01-30T08:46:11;102016.75;;;2.46;70.73
17607;BME280;69222;52.242;20.980;2024-01-30T08:48:41;102025.53;;;2.51;70.36
17607;BME280;69222;52.242;20.980;2024-01-30T08:51:09;102029.88;;;2.54;70.32
17607;BME280;69222;52.242;20.980;2024-01-30T08:53:37;102031.88;;;2.59;70.09
17607;BME280;69222;52.242;20.980;2024-01-30T08:56:06;102030.38;;;2.63;70.75
17607;BME280;69222;52.242;20.980;2024-01-30T08:58:34;102027.25;;;2.69;70.06
17607;BME280;69222;52.242;20.980;2024-01-30T09:01:04;102020.75;;;2.74;70.71
17607;BME280;69222;52.242;20.980;2024-01-30T09:03:33;102020.19;;;2.79;70.43
17607;BME280;69222;52.242;20.980;2024-01-30T09:06:01;102023.00;;;2.84;70.55
17607;BME280;69222;52.242;20.980;2024-01-30T09:08:29;102024.25;;;2.92;69.41
17607;BME280;69222;52.242;20.980;2024-01-30T09:10:57;102029.56;;;2.97;69.79
17607;BME280;69222;52.242;20.980;2024-01-30T09:13:25;102029.91;;;3.03;69.52
17607;BME280;69222;52.242;20.980;2024-01-30T09:15:53;102026.00;;;3.09;68.71
17607;BME280;69222;52.242;20.980;2024-01-30T09:18:26;102015.22;;;3.15;69.11
17607;BME280;69222;52.242;20.980;2024-01-30T09:20:54;102017.44;;;3.25;68.76
17607;BME280;69222;52.242;20.980;2024-01-30T09:23:22;102014.41;;;3.32;68.61
17607;BME280;69222;52.242;20.980;2024-01-30T09:25:50;102019.78;;;3.38;68.39
17607;BME280;69222;52.242;20.980;2024-01-30T09:28:18;102015.97;;;3.47;68.17
17607;BME280;69222;52.242;20.980;2024-01-30T09:30:47;102020.47;;;3.52;67.51
17607;BME280;69222;52.242;20.980;2024-01-30T09:33:15;102019.03;;;3.57;66.63
17607;BME280;69222;52.242;20.980;2024-01-30T09:35:45;102015.03;;;3.62;66.20
17607;BME280;69222;52.242;20.980;2024-01-30T09:38:13;102000.91;;;3.69;66.51
17607;BME280;69222;52.242;20.980;2024-01-30T09:40:41;102002.94;;;3.76;66.03
17607;BME280;69222;52.242;20.980;2024-01-30T09:43:15;102001.47;;;3.81;65.44
17607;BME280;69222;52.242;20.980;2024-01-30T09:45:46;101997.44;;;3.86;65.45
17607;BME280;69222;52.242;20.980;2024-01-30T09:48:15;101996.94;;;3.94;65.14
17607;BME280;69222;52.242;20.980;2024-01-30T09:50:44;101994.75;;;4.01;64.88
17607;BME280;69222;52.242;20.980;2024-01-30T09:53:13;102001.88;;;4.08;64.35
17607;BME280;69222;52.242;20.980;2024-01-30T09:55:43;101999.56;;;4.13;64.22
17607;BME280;69222;52.242;20.980;2024-01-30T09:58:12;101994.84;;;4.22;64.26
17607;BME280;69222;52.242;20.980;2024-01-30T10:00:41;101988.31;;;4.27;63.99
17607;BME280;69222;52.242;20.980;2024-01-30T10:03:09;101994.53;;;4.34;63.72
17607;BME280;69222;52.242;20.980;2024-01-30T10:05:40;101993.94;;;4.40;63.27
17607;BME280;69222;52.242;20.980;2024-01-30T10:08:09;101988.22;;;4.45;62.49
17607;BME280;69222;52.242;20.980;2024-01-30T10:10:37;101985.91;;;4.50;62.12
17607;BME280;69222;52.242;20.980;2024-01-30T10:13:05;101982.69;;;4.54;61.93
17607;BME280;69222;52.242;20.980;2024-01-30T10:15:33;101982.00;;;4.58;62.05
17607;BME280;69222;52.242;20.980;2024-01-30T10:18:02;101969.25;;;4.58;62.15
17607;BME280;69222;52.242;20.980;2024-01-30T10:20:33;101971.31;;;4.67;61.77
17607;BME280;69222;52.242;20.980;2024-01-30T10:23:02;101970.63;;;4.71;61.05
17607;BME280;69222;52.242;20.980;2024-01-30T10:25:32;101973.41;;;4.75;61.03
17607;BME280;69222;52.242;20.980;2024-01-30T10:28:00;101971.03;;;4.80;61.51
17607;BME280;69222;52.242;20.980;2024-01-30T10:30:28;101967.81;;;4.84;61.23
17607;BME280;69222;52.242;20.980;2024-01-30T10:32:56;101966.25;;;4.88;61.41
17607;BME280;69222;52.242;20.980;2024-01-30T10:35:24;101964.72;;;4.91;60.93
17607;BME280;69222;52.242;20.980;2024-01-30T10:37:52;101956.38;;;4.95;60.54
17607;BME280;69222;52.242;20.980;2024-01-30T10:40:27;101952.31;;;5.00;60.46
17607;BME280;69222;52.242;20.980;2024-01-30T10:43:00;101950.75;;;5.04;60.17
17607;BME280;69222;52.242;20.980;2024-01-30T10:45:31;101945.78;;;5.07;60.23
17607;BME280;69222;52.242;20.980;2024-01-30T10:48:00;101951.97;;;5.12;60.02
17607;BME280;69222;52.242;20.980;2024-01-30T10:50:30;101939.38;;;5.17;60.23
17607;BME280;69222;52.242;20.980;2024-01-30T10:53:04;101939.63;;;5.23;59.91
17607;BME280;69222;52.242;20.980;2024-01-30T10:55:33;101936.31;;;5.25;59.10
17607;BME280;69222;52.242;20.980;2024-01-30T10:58:04;101929.59;;;5.27;58.75
17607;BME280;69222;52.242;20.980;2024-01-30T11:00:32;101923.09;;;5.36;58.17
17607;BME280;69222;52.242;20.980;2024-01-30T11:03:01;101930.91;;;5.39;58.13
17607;BME280;69222;52.242;20.980;2024-01-30T11:05:30;101935.31;;;5.43;58.87
17607;BME280;69222;52.242;20.980;2024-01-30T11:08:10;101921.97;;;5.50;58.99
17607;BME280;69222;52.242;20.980;2024-01-30T11:10:45;101923.81;;;5.54;58.78
17607;BME280;69222;52.242;20.980;2024-01-30T11:13:15;101921.44;;;5.58;58.55
17607;BME280;69222;52.242;20.980;2024-01-30T11:15:43;101919.88;;;5.62;58.70
17607;BME280;69222;52.242;20.980;2024-01-30T11:18:11;101914.06;;;5.66;58.57
17607;BME280;69222;52.242;20.980;2024-01-30T11:20:46;101915.00;;;5.68;58.77
17607;BME280;69222;52.242;20.980;2024-01-30T11:23:15;101910.06;;;5.73;58.57
17607;BME280;69222;52.242;20.980;2024-01-30T11:25:43;101901.63;;;5.75;58.18
17607;BME280;69222;52.242;20.980;2024-01-30T11:28:16;101902.56;;;5.77;58.33
17607;BME280;69222;52.242;20.980;2024-01-30T11:30:45;101900.13;;;5.80;58.03
17607;BME280;69222;52.242;20.980;2024-01-30T11:33:16;101902.78;;;5.84;58.77
17607;BME280;69222;52.242;20.980;2024-01-30T11:35:59;101891.94;;;5.89;58.06
17607;BME280;69222;52.242;20.980;2024-01-30T11:38:28;101886.94;;;5.92;58.08
17607;BME280;69222;52.242;20.980;2024-01-30T11:40:56;101896.53;;;5.98;57.98
17607;BME280;69222;52.242;20.980;2024-01-30T11:43:26;101885.56;;;6.00;57.42
17607;BME280;69222;52.242;20.980;2024-01-30T11:45:54;101880.53;;;6.03;57.58
17607;BME280;69222;52.242;20.980;2024-01-30T11:48:22;101882.56;;;6.12;57.68
17607;BME280;69222;52.242;20.980;2024-01-30T11:50:50;101886.16;;;6.17;57.45
17607;BME280;69222;52.242;20.980;2024-01-30T11:53:18;101883.69;;;6.20;56.92
17607;BME280;69222;52.242;20.980;2024-01-30T11:55:49;101880.44;;;6.24;57.34
17607;BME280;69222;52.242;20.980;2024-01-30T11:58:17;101879.69;;;6.27;57.19
17607;BME280;69222;52.242;20.980;2024-01-30T12:00:54;101872.88;;;6.27;57.05
17607;BME280;69222;52.242;20.980;2024-01-30T12:03:23;101879.78;;;6.30;56.56
17607;BME280;69222;52.242;20.980;2024-01-30T12:05:55;101875.59;;;6.32;57.09
17607;BME280;69222;52.242;20.980;2024-01-30T12:08:24;101871.50;;;6.37;55.81
17607;BME280;69222;52.242;20.980;2024-01-30T12:10:56;101869.16;;;6.43;56.43
17607;BME280;69222;52.242;20.980;2024-01-30T12:13:25;101869.63;;;6.57;56.25
17607;BME280;69222;52.242;20.980;2024-01-30T12:15:59;101861.94;;;6.83;55.98
17607;BME280;69222;52.242;20.980;2024-01-30T12:18:28;101857.50;;;7.31;55.69
17607;BME280;69222;52.242;20.980;2024-01-30T12:20:59;101854.88;;;7.87;53.75
17607;BME280;69222;52.242;20.980;2024-01-30T12:23:28;101857.34;;;8.44;52.03
17607;BME280;69222;52.242;20.980;2024-01-30T12:25:56;101855.09;;;8.91;50.50
17607;BME280;69222;52.242;20.980;2024-01-30T12:28:24;101863.63;;;9.25;49.71
17607;BME280;69222;52.242;20.980;2024-01-30T12:30:56;101859.16;;;9.55;48.64
17607;BME280;69222;52.242;20.980;2024-01-30T12:33:26;101845.84;;;9.75;47.19
17607;BME280;69222;52.242;20.980;2024-01-30T12:35:56;101849.63;;;9.92;46.94
17607;BME280;69222;52.242;20.980;2024-01-30T12:38:29;101847.34;;;10.06;46.46
17607;BME280;69222;52.242;20.980;2024-01-30T12:40:57;101844.06;;;10.16;45.98
17607;BME280;69222;52.242;20.980;2024-01-30T12:43:25;101846.75;;;10.21;45.42
17607;BME280;69222;52.242;20.980;2024-01-30T12:46:04;101836.66;;;10.30;45.68
17607;BME280;69222;52.242;20.980;2024-01-30T12:48:34;101834.22;;;10.37;45.16
17607;BME280;69222;52.242;20.980;2024-01-30T12:51:03;101832.56;;;10.41;45.10
17607;BME280;69222;52.242;20.980;2024-01-30T12:53:31;101821.44;;;10.44;44.94
17607;BME280;69222;52.242;20.980;2024-01-30T12:55:59;101824.06;;;10.47;45.14
17607;BME280;69222;52.242;20.980;2024-01-30T12:58:27;101829.97;;;10.41;44.33
17607;BME280;69222;52.242;20.980;2024-01-30T13:00:55;101822.91;;;10.31;44.17